createdAt,value
2019-06-20T00:00:32.485Z,5.77
2019-06-20T00:04:37.385Z,6.00
2019-06-20T00:08:42.491Z,6.57
2019-06-20T00:12:59.944Z,5.63
2019-06-20T00:16:53.923Z,6.40
2019-06-20T00:20:59.178Z,5.90
2019-06-20T00:25:05.441Z,5.87
2019-06-20T00:29:10.328Z,6.97
2019-06-20T00:33:15.346Z,5.33
2019-06-20T00:37:20.328Z,5.37
2019-06-20T00:41:25.414Z,7.20
2019-06-20T00:45:30.809Z,6.13
2019-06-20T00:49:35.707Z,7.20
2019-06-20T00:53:40.930Z,5.57
2019-06-20T00:57:46.892Z,5.97
2019-06-20T01:01:51.784Z,5.70
2019-06-20T01:05:56.765Z,6.60
2019-06-20T01:10:01.721Z,6.60
2019-06-20T01:14:07.024Z,5.87
2019-06-20T01:18:11.906Z,6.20
2019-06-20T01:22:16.755Z,6.87
2019-06-20T01:26:21.729Z,8.17
2019-06-20T01:30:26.604Z,5.37
2019-06-20T01:34:31.625Z,6.57
2019-06-20T01:38:36.664Z,7.60
2019-06-20T01:42:41.850Z,9.37
2019-06-20T01:46:46.900Z,7.90
2019-06-20T01:50:51.835Z,5.50
2019-06-20T01:54:56.690Z,5.10
2019-06-20T01:59:02.323Z,5.43
2019-06-20T02:03:07.295Z,6.03
2019-06-20T02:07:12.400Z,6.30
2019-06-20T02:11:17.527Z,7.37
2019-06-20T02:15:22.611Z,6.80
2019-06-20T02:19:27.514Z,8.00
2019-06-20T02:23:32.409Z,5.73
2019-06-20T02:27:37.548Z,6.47
2019-06-20T02:31:42.437Z,5.67
2019-06-20T02:35:48.682Z,8.77
2019-06-20T02:39:53.575Z,6.37
2019-06-20T02:43:58.746Z,6.83
2019-06-20T02:48:04.081Z,5.30
2019-06-20T02:52:09.442Z,5.93
2019-06-20T02:56:14.841Z,5.73
2019-06-20T03:00:29.883Z,4.97
2019-06-20T03:04:35.083Z,5.07
2019-06-20T03:08:40.329Z,5.30
2019-06-20T03:12:45.770Z,5.10
2019-06-20T03:16:51.137Z,6.40
2019-06-20T03:20:56.168Z,7.67
2019-06-20T03:25:01.361Z,8.20
2019-06-20T03:29:06.393Z,7.30
2019-06-20T03:33:11.263Z,7.50
2019-06-20T03:37:16.540Z,5.70
2019-06-20T03:41:21.509Z,6.70
2019-06-20T03:45:26.924Z,7.23
2019-06-20T03:49:32.122Z,9.17
2019-06-20T03:53:37.746Z,8.87
2019-06-20T03:57:43.063Z,7.50
2019-06-20T04:01:49.235Z,8.40
2019-06-20T04:05:54.971Z,6.73
2019-06-20T04:10:00.235Z,5.80
2019-06-20T04:14:05.868Z,7.07
2019-06-20T04:18:10.898Z,6.57
2019-06-20T04:22:16.173Z,5.87
2019-06-20T04:26:21.496Z,7.10
2019-06-20T04:30:26.771Z,7.90
2019-06-20T04:34:32.077Z,6.80
2019-06-20T04:38:37.237Z,7.77
2019-06-20T04:42:42.410Z,8.17
2019-06-20T04:47:05.346Z,6.20
2019-06-20T04:51:10.445Z,7.03
2019-06-20T04:55:15.645Z,7.40
2019-06-20T04:59:20.513Z,7.87
2019-06-20T05:03:25.481Z,7.97
2019-06-20T05:07:30.560Z,9.50
2019-06-20T05:11:36.103Z,8.20
2019-06-20T05:15:51.988Z,6.93
2019-06-20T05:19:49.095Z,7.17
2019-06-20T05:23:54.403Z,10.97
2019-06-20T05:28:00.064Z,7.47
2019-06-20T05:32:21.015Z,8.80
2019-06-20T05:36:26.507Z,9.63
2019-06-20T05:40:32.051Z,9.80
2019-06-20T05:44:37.534Z,8.93
2019-06-20T05:48:43.322Z,9.37
2019-06-20T05:52:50.448Z,9.53
2019-06-20T05:56:55.941Z,7.67
2019-06-20T06:01:01.355Z,8.33
2019-06-20T06:05:07.940Z,9.10
2019-06-20T06:09:14.174Z,9.67
2019-06-20T06:17:50.263Z,8.03
2019-06-20T06:21:55.159Z,8.53
2019-06-20T06:26:00.145Z,8.67
2019-06-20T06:30:06.112Z,9.83
2019-06-20T06:34:11.210Z,10.60
2019-06-20T06:38:21.747Z,8.33
2019-06-20T06:42:22.740Z,8.20
2019-06-20T06:46:43.749Z,8.60
2019-06-20T06:50:39.935Z,8.07
2019-06-20T06:54:45.058Z,7.77
2019-06-20T06:58:50.230Z,7.13
2019-06-20T07:02:55.363Z,7.93
2019-06-20T07:07:00.245Z,8.37
2019-06-20T07:11:05.426Z,6.93
2019-06-20T07:15:11.246Z,6.97
2019-06-20T07:19:16.116Z,7.63
2019-06-20T07:23:21.185Z,7.17
2019-06-20T07:27:26.178Z,5.83
2019-06-20T07:31:31.259Z,6.30
2019-06-20T07:35:36.293Z,6.77
2019-06-20T07:39:41.227Z,6.80
2019-06-20T07:43:46.196Z,6.53
2019-06-20T07:47:51.246Z,7.00
2019-06-20T07:51:56.160Z,6.33
2019-06-20T07:56:01.044Z,5.30
2019-06-20T08:00:07.493Z,6.03
2019-06-20T08:04:12.396Z,5.77
2019-06-20T08:08:17.354Z,5.80
2019-06-20T08:12:22.625Z,5.03
2019-06-20T08:16:27.510Z,5.20
2019-06-20T08:20:32.656Z,4.80
2019-06-20T08:24:37.526Z,6.03
2019-06-20T08:28:42.558Z,5.00
2019-06-20T08:32:47.466Z,4.00
2019-06-20T08:37:09.991Z,4.67
2019-06-20T08:41:15.475Z,4.50
2019-06-20T08:45:22.357Z,5.07
2019-06-20T08:49:28.441Z,3.30
2019-06-20T08:53:33.715Z,3.97
2019-06-20T08:57:39.024Z,3.80
2019-06-20T09:01:44.070Z,3.77
2019-06-20T09:05:49.628Z,3.37
2019-06-20T09:09:55.816Z,3.23
2019-06-20T09:14:01.512Z,4.80
2019-06-20T09:18:07.264Z,2.97
2019-06-20T09:22:12.138Z,3.77
2019-06-20T09:26:17.096Z,3.43
2019-06-20T09:30:22.341Z,3.00
2019-06-20T09:34:27.320Z,2.83
2019-06-20T09:38:32.270Z,3.50
2019-06-20T09:42:37.499Z,3.70
2019-06-20T09:46:42.507Z,3.20
2019-06-20T09:50:49.367Z,4.10
2019-06-20T09:54:54.135Z,3.07
2019-06-20T09:59:27.640Z,3.90
2019-06-20T10:03:26.176Z,3.67
2019-06-20T10:07:32.166Z,3.40
2019-06-20T10:11:37.438Z,3.40
2019-06-20T10:15:43.015Z,3.60
2019-06-20T10:19:48.388Z,3.33
2019-06-20T10:23:53.958Z,3.57
2019-06-20T10:27:58.972Z,4.13
2019-06-20T10:32:03.993Z,4.27
2019-06-20T10:36:09.020Z,3.80
2019-06-20T10:40:14.807Z,4.00
2019-06-20T10:44:19.734Z,3.50
2019-06-20T10:48:27.197Z,3.40
2019-06-20T10:52:32.855Z,4.67
2019-06-20T10:56:38.360Z,3.67
2019-06-20T11:00:44.562Z,3.83
2019-06-20T11:04:50.045Z,4.23
2019-06-20T11:08:55.873Z,4.73
2019-06-20T11:13:02.837Z,3.97
2019-06-20T11:17:08.930Z,3.93
2019-06-20T11:21:20.447Z,4.90
2019-06-20T11:25:26.027Z,3.83
2019-06-20T11:29:50.563Z,4.70
2019-06-20T11:33:55.970Z,4.43
2019-06-20T11:38:01.400Z,4.70
2019-06-20T11:42:07.118Z,4.43
2019-06-20T11:46:12.523Z,4.30
2019-06-20T11:50:18.019Z,4.77
2019-06-20T11:54:23.447Z,4.53
2019-06-20T11:58:28.698Z,4.60
2019-06-20T12:02:33.904Z,5.33
2019-06-20T12:06:40.150Z,5.17
2019-06-20T12:10:47.319Z,4.37
2019-06-20T12:14:52.591Z,5.43
2019-06-20T12:18:57.899Z,4.53
2019-06-20T12:23:03.232Z,4.70
2019-06-20T12:27:08.570Z,5.60
2019-06-20T12:31:19.607Z,4.90
2019-06-20T12:35:21.450Z,4.83
2019-06-20T12:39:27.200Z,5.50
2019-06-20T12:43:32.494Z,6.73
2019-06-20T12:47:40.203Z,4.50
2019-06-20T12:51:47.044Z,5.20
2019-06-20T12:55:52.767Z,5.20
2019-06-20T12:59:58.118Z,4.77
2019-06-20T13:04:03.386Z,5.13
2019-06-20T13:08:13.458Z,4.60
2019-06-20T13:12:17.324Z,4.10
2019-06-20T13:16:22.291Z,4.53
2019-06-20T13:20:27.492Z,4.17
2019-06-20T13:24:32.507Z,3.90
2019-06-20T13:28:59.043Z,5.17
2019-06-20T13:32:49.284Z,4.83
2019-06-20T13:36:54.437Z,5.47
2019-06-20T13:41:00.652Z,4.40
2019-06-20T13:45:06.550Z,6.90
2019-06-20T13:49:11.578Z,5.10
2019-06-20T13:53:16.881Z,4.70
2019-06-20T13:57:23.362Z,5.90
2019-06-20T14:01:28.571Z,5.90
2019-06-20T14:05:33.969Z,5.00
2019-06-20T14:09:39.202Z,5.50
2019-06-20T14:13:47.705Z,4.80
2019-06-20T14:17:51.590Z,5.30
2019-06-20T14:21:56.973Z,5.13
2019-06-20T14:26:02.373Z,4.80
2019-06-20T14:30:09.567Z,4.40
2019-06-20T14:34:16.174Z,4.97
2019-06-20T14:38:21.870Z,5.53
2019-06-20T14:42:26.951Z,5.07
2019-06-20T14:46:32.138Z,5.47
2019-06-20T14:50:37.905Z,5.10
2019-06-20T14:54:44.083Z,5.57
2019-06-20T14:58:51.601Z,5.43
2019-06-20T15:02:58.736Z,4.37
2019-06-20T15:07:03.957Z,4.30
2019-06-20T15:11:12.096Z,6.50
2019-06-20T15:15:17.821Z,7.97
2019-06-20T15:19:22.707Z,5.50
2019-06-20T15:23:27.686Z,7.27
2019-06-20T15:27:32.887Z,6.30
2019-06-20T15:31:37.819Z,5.90
2019-06-20T15:35:43.257Z,5.50
2019-06-20T15:39:50.260Z,9.13
2019-06-20T15:43:58.021Z,6.07
2019-06-20T15:48:04.262Z,5.60
2019-06-20T15:52:11.013Z,6.83
2019-06-20T15:56:16.794Z,6.50
2019-06-20T16:00:22.395Z,6.20
2019-06-20T16:04:27.770Z,5.50
2019-06-20T16:08:33.188Z,6.00
2019-06-20T16:12:39.762Z,7.50
2019-06-20T16:16:46.038Z,7.60
2019-06-20T16:20:53.115Z,8.00
2019-06-20T16:24:59.459Z,5.90
2019-06-20T16:29:05.161Z,7.00
2019-06-20T16:33:24.258Z,7.00
2019-06-20T16:37:18.220Z,6.93
2019-06-20T16:41:24.169Z,6.73
2019-06-20T16:45:29.614Z,7.00
2019-06-20T16:49:35.863Z,7.07
2019-06-20T16:53:41.459Z,6.23
2019-06-20T16:57:48.978Z,6.97
2019-06-20T17:01:58.456Z,8.10
2019-06-20T17:06:04.210Z,7.30
2019-06-20T17:10:11.092Z,7.77
2019-06-20T17:14:17.897Z,6.37
2019-06-20T17:18:23.877Z,7.33
2019-06-20T17:22:29.803Z,5.73
2019-06-20T17:26:35.538Z,6.77
2019-06-20T17:30:41.383Z,7.93
2019-06-20T17:34:47.439Z,7.80
2019-06-20T17:38:53.895Z,8.00
2019-06-20T17:42:59.271Z,6.20
2019-06-20T17:47:04.755Z,6.40
2019-06-20T17:51:09.701Z,7.27
2019-06-20T17:55:15.720Z,9.13
2019-06-20T17:59:22.783Z,13.33
2019-06-20T18:03:30.007Z,8.60
2019-06-20T18:07:36.787Z,8.10
2019-06-20T18:11:43.214Z,6.40
2019-06-20T18:15:51.739Z,6.70
2019-06-20T18:19:56.956Z,7.50
2019-06-20T18:24:02.786Z,7.47
2019-06-20T18:28:08.299Z,7.00
2019-06-20T18:32:13.959Z,7.37
2019-06-20T18:36:19.594Z,9.20
2019-06-20T18:40:25.141Z,8.37
2019-06-20T18:44:31.344Z,7.63
2019-06-20T18:48:37.134Z,7.50
2019-06-20T18:52:51.547Z,8.00
2019-06-20T18:56:49.306Z,8.03
2019-06-20T19:00:54.554Z,8.50
2019-06-20T19:04:59.721Z,8.63
2019-06-20T19:09:07.242Z,7.60
2019-06-20T19:13:13.153Z,8.40
2019-06-20T19:17:18.144Z,7.30
2019-06-20T19:21:23.877Z,7.27
2019-06-20T19:25:29.046Z,7.80
2019-06-20T19:29:35.674Z,8.17
2019-06-20T19:33:41.288Z,7.53
2019-06-20T19:38:14.889Z,8.27
2019-06-20T19:42:35.962Z,8.57
2019-06-20T19:46:55.106Z,7.10
2019-06-20T19:56:08.573Z,8.00
2019-06-20T20:01:01.544Z,7.60
2019-06-20T20:05:22.933Z,7.47
2019-06-20T20:09:32.650Z,8.53
2019-06-20T20:13:54.021Z,7.50
2019-06-20T20:18:03.271Z,7.00
2019-06-20T20:22:22.682Z,8.60
2019-06-20T20:26:31.363Z,10.20
2019-06-20T20:30:41.047Z,8.80
2019-06-20T20:34:47.061Z,9.57
2019-06-20T20:38:52.035Z,7.27
2019-06-20T20:42:57.086Z,7.80
2019-06-20T20:47:03.986Z,9.00
2019-06-20T20:51:10.359Z,9.23
2019-06-20T20:55:18.416Z,8.27
2019-06-20T20:59:24.126Z,9.87
2019-06-20T21:03:30.227Z,9.90
2019-06-20T21:07:39.191Z,9.73
2019-06-20T21:11:47.570Z,8.33
2019-06-20T21:15:56.849Z,7.90
2019-06-20T21:20:01.718Z,9.07
2019-06-20T21:24:07.115Z,6.83
2019-06-20T21:28:13.004Z,7.63
2019-06-20T21:32:18.862Z,15.37
2019-06-20T21:36:25.531Z,7.43
2019-06-20T21:40:32.055Z,10.30
2019-06-20T21:44:39.922Z,7.47
2019-06-20T21:48:44.809Z,8.23
2019-06-20T21:52:51.153Z,9.17
2019-06-20T21:56:56.581Z,7.83
2019-06-20T22:01:02.819Z,16.23
2019-06-20T22:05:08.489Z,10.90
2019-06-20T22:09:13.648Z,10.97
2019-06-20T22:13:21.221Z,12.33
2019-06-20T22:17:27.505Z,11.80
2019-06-20T22:21:33.077Z,8.20
2019-06-20T22:25:38.797Z,8.87
2019-06-20T22:29:44.000Z,9.17
2019-06-20T22:33:49.766Z,8.70
2019-06-20T22:37:57.397Z,10.13
2019-06-20T22:42:03.389Z,11.40
2019-06-20T22:46:08.606Z,14.43
2019-06-20T22:50:17.579Z,9.70
2019-06-20T22:54:23.767Z,8.77
2019-06-20T22:58:29.081Z,7.27
2019-06-20T23:02:35.481Z,8.93
2019-06-20T23:06:55.441Z,7.60
2019-06-20T23:10:47.702Z,7.37
2019-06-20T23:14:54.442Z,8.13
2019-06-20T23:19:01.469Z,5.97
2019-06-20T23:23:08.474Z,7.23
2019-06-20T23:27:21.010Z,6.60
2019-06-20T23:31:25.916Z,7.97
2019-06-20T23:35:30.871Z,8.57
2019-06-20T23:39:35.702Z,6.43
2019-06-20T23:43:41.767Z,6.93
2019-06-20T23:47:46.638Z,7.10
2019-06-20T23:51:57.083Z,7.83
2019-06-20T23:56:02.067Z,7.17
